PWSweather.com
Personal Weather Stations
Station Observations
KTXPLANO60
Highlands Of Russell Park, Plano, TX 75025

Highlands Of Russell ParkPlano, TX 75025

Lat: 33.10431671, Lon: -96.75176239

Elevation: 761

Station Type: Davis Wireless VP2 Plus

http://www.planoweather.com

Latest ConditionsUpdated 11:30:08 PM CDT Monday, Jul 28, 2014
Currently Today's Max Today's Min Today's Average
Temperature 76.7°F24.8°C 93.0°F33.9°C 76.7°F24.8°C 85.3°F29.6°C
Dew Point 64.9°F18.3°C 74.9°F23.8°C 62.6°F17.0°C 69.8°F21.0°C
Winds Calm Calm 13.4 mph N21.6 kmh N - 3.7 mph 6.0 kmh
Wind Gusts -- 24.0 mph38.6 kmh - -
Humidity 67% 85% 39% 61%
Pressure 30.04 in1017.3 mb 30.06 in1017.9 mb 29.93 in1013.5 mb -
Hour Temp Dew Point Humidity Winds Wind Gusts Pressure Precip Precip Rate Daily Precip Total
11:30 PM 76.7°F24.8°C 64.9°F18.3°C 67% Calm Calm -- 30.04 in1017.3 mb 0.00 in0.0 mm 0.00 in/hr0.0 mm/hr 0.00 in0.0 mm
11:20 PM 77.2°F25.1°C 64.9°F18.3°C 66% Calm Calm -- 30.04 in1017.3 mb 0.00 in0.0 mm 0.00 in/hr0.0 mm/hr 0.00 in0.0 mm
11:10 PM 77.7°F25.4°C 65.0°F18.3°C 65% Calm Calm -- 30.03 in1016.9 mb 0.00 in0.0 mm 0.00 in/hr0.0 mm/hr 0.00 in0.0 mm
11:00 PM 78.0°F25.6°C 64.8°F18.2°C 64% Calm Calm -- 30.03 in1016.9 mb 0.00 in0.0 mm 0.00 in/hr0.0 mm/hr 0.00 in0.0 mm
10:50 PM 78.3°F25.7°C 64.7°F18.2°C 63% Calm Calm -- 30.03 in1016.9 mb 0.00 in0.0 mm 0.00 in/hr0.0 mm/hr 0.00 in0.0 mm
10:40 PM 78.6°F25.9°C 64.5°F18.1°C 62% Calm Calm -- 30.03 in1016.9 mb 0.00 in0.0 mm 0.00 in/hr0.0 mm/hr 0.00 in0.0 mm
10:30 PM 78.9°F26.1°C 64.3°F17.9°C 61% Calm Calm -- 30.04 in1017.3 mb 0.00 in0.0 mm 0.00 in/hr0.0 mm/hr 0.00 in0.0 mm
10:20 PM 79.2°F26.2°C 64.6°F18.1°C 61% Calm Calm -- 30.04 in1017.3 mb 0.00 in0.0 mm 0.00 in/hr0.0 mm/hr 0.00 in0.0 mm
10:10 PM 79.6°F26.4°C 64.5°F18.1°C 60% Calm Calm -- 30.03 in1016.9 mb 0.00 in0.0 mm 0.00 in/hr0.0 mm/hr 0.00 in0.0 mm
10:00 PM 80.0°F26.7°C 64.4°F18.0°C 59% Calm Calm -- 30.03 in1016.9 mb 0.00 in0.0 mm 0.00 in/hr0.0 mm/hr 0.00 in0.0 mm
09:50 PM 80.5°F26.9°C 64.4°F18.0°C 58% Calm Calm -- 30.02 in1016.6 mb 0.00 in0.0 mm 0.00 in/hr0.0 mm/hr 0.00 in0.0 mm
09:40 PM 80.9°F27.2°C 64.2°F17.9°C 57% 0.9 mph NE1.4 kmh NE 5.0 mph8.0 kmh 30.02 in1016.6 mb 0.00 in0.0 mm 0.00 in/hr0.0 mm/hr 0.00 in0.0 mm
09:30 PM 81.2°F27.3°C 64.0°F17.8°C 56% 0.7 mph ENE1.1 kmh ENE 4.0 mph6.4 kmh 30.02 in1016.6 mb 0.00 in0.0 mm 0.00 in/hr0.0 mm/hr 0.00 in0.0 mm
09:20 PM 81.5°F27.5°C 63.8°F17.7°C 55% 3.2 mph NE5.1 kmh NE 7.0 mph11.3 kmh 30.01 in1016.3 mb 0.00 in0.0 mm 0.00 in/hr0.0 mm/hr 0.00 in0.0 mm
09:10 PM 81.8°F27.7°C 64.1°F17.8°C 55% 0.7 mph NE1.1 kmh NE 4.0 mph6.4 kmh 30.01 in1016.3 mb 0.00 in0.0 mm 0.00 in/hr0.0 mm/hr 0.00 in0.0 mm
09:00 PM 82.2°F27.9°C 64.4°F18.0°C 55% 2.6 mph NE4.2 kmh NE 6.0 mph9.7 kmh 30.01 in1016.3 mb 0.00 in0.0 mm 0.00 in/hr0.0 mm/hr 0.00 in0.0 mm
08:50 PM 82.6°F28.1°C 64.8°F18.2°C 55% Calm Calm -- 30.01 in1016.3 mb 0.00 in0.0 mm 0.00 in/hr0.0 mm/hr 0.00 in0.0 mm
08:40 PM 83.0°F28.3°C 65.2°F18.4°C 55% 2.2 mph NE3.5 kmh NE 3.0 mph4.8 kmh 30.01 in1016.3 mb 0.00 in0.0 mm 0.00 in/hr0.0 mm/hr 0.00 in0.0 mm
08:30 PM 83.4°F28.6°C 65.5°F18.6°C 55% Calm Calm -- 30.00 in1015.9 mb 0.00 in0.0 mm 0.00 in/hr0.0 mm/hr 0.00 in0.0 mm
08:20 PM 83.9°F28.8°C 66.0°F18.9°C 55% 5.3 mph NE8.5 kmh NE 9.0 mph14.5 kmh 30.00 in1015.9 mb 0.00 in0.0 mm 0.00 in/hr0.0 mm/hr 0.00 in0.0 mm
08:10 PM 84.4°F29.1°C 65.9°F18.8°C 54% 5.2 mph NE8.4 kmh NE 12.0 mph19.3 kmh 30.00 in1015.9 mb 0.00 in0.0 mm 0.00 in/hr0.0 mm/hr 0.00 in0.0 mm
08:00 PM 84.8°F29.3°C 66.3°F19.1°C 54% 2.8 mph NE4.5 kmh NE 6.0 mph9.7 kmh 29.99 in1015.6 mb 0.00 in0.0 mm 0.00 in/hr0.0 mm/hr 0.00 in0.0 mm
07:50 PM 85.3°F29.6°C 66.8°F19.3°C 54% 5.7 mph NE9.2 kmh NE 9.0 mph14.5 kmh 29.99 in1015.6 mb 0.00 in0.0 mm 0.00 in/hr0.0 mm/hr 0.00 in0.0 mm
07:40 PM 85.7°F29.8°C 66.6°F19.2°C 53% 4.9 mph NE7.9 kmh NE 12.0 mph19.3 kmh 30.00 in1015.9 mb 0.00 in0.0 mm 0.00 in/hr0.0 mm/hr 0.00 in0.0 mm
07:30 PM 86.1°F30.1°C 66.4°F19.1°C 52% 3.8 mph NE6.1 kmh NE 6.0 mph9.7 kmh 29.99 in1015.6 mb 0.00 in0.0 mm 0.00 in/hr0.0 mm/hr 0.00 in0.0 mm
07:20 PM 86.3°F30.2°C 66.6°F19.2°C 52% 6.9 mph NNE11.1 kmh NNE 11.0 mph17.7 kmh 29.99 in1015.6 mb 0.00 in0.0 mm 0.00 in/hr0.0 mm/hr 0.00 in0.0 mm
07:10 PM 86.0°F30.0°C 66.3°F19.1°C 52% 5.1 mph N8.2 kmh N 9.0 mph14.5 kmh 29.99 in1015.6 mb 0.00 in0.0 mm 0.00 in/hr0.0 mm/hr 0.00 in0.0 mm
07:00 PM 86.2°F30.1°C 65.9°F18.8°C 51% 5.2 mph NNE8.4 kmh NNE 8.0 mph12.9 kmh 29.98 in1015.2 mb 0.00 in0.0 mm 0.00 in/hr0.0 mm/hr 0.00 in0.0 mm
06:50 PM 86.6°F30.3°C 65.7°F18.7°C 50% 6.6 mph NNE10.6 kmh NNE 9.0 mph14.5 kmh 29.99 in1015.6 mb 0.00 in0.0 mm 0.00 in/hr0.0 mm/hr 0.00 in0.0 mm
06:40 PM 86.9°F30.5°C 66.0°F18.9°C 50% 5.6 mph NE9.0 kmh NE 9.0 mph14.5 kmh 30.00 in1015.9 mb 0.00 in0.0 mm 0.00 in/hr0.0 mm/hr 0.00 in0.0 mm
06:30 PM 87.2°F30.7°C 65.7°F18.7°C 49% 6.6 mph NNE10.6 kmh NNE 9.0 mph14.5 kmh 30.00 in1015.9 mb 0.00 in0.0 mm 0.00 in/hr0.0 mm/hr 0.00 in0.0 mm
06:20 PM 87.6°F30.9°C 65.5°F18.6°C 48% 7.6 mph NE12.2 kmh NE 8.0 mph12.9 kmh 29.99 in1015.6 mb 0.00 in0.0 mm 0.00 in/hr0.0 mm/hr 0.00 in0.0 mm
06:10 PM 88.3°F31.3°C 67.9°F19.9°C 51% 5.0 mph NE8.0 kmh NE 8.0 mph12.9 kmh 30.00 in1015.9 mb 0.00 in0.0 mm 0.00 in/hr0.0 mm/hr 0.00 in0.0 mm
06:00 PM 88.4°F31.3°C 68.5°F20.3°C 52% 4.1 mph NE6.6 kmh NE 8.0 mph12.9 kmh 30.00 in1015.9 mb 0.00 in0.0 mm 0.00 in/hr0.0 mm/hr 0.00 in0.0 mm
05:50 PM 88.8°F31.6°C 67.7°F19.8°C 50% 6.7 mph N10.8 kmh N 12.0 mph19.3 kmh 30.00 in1015.9 mb 0.00 in0.0 mm 0.00 in/hr0.0 mm/hr 0.00 in0.0 mm
05:40 PM 89.3°F31.8°C 68.2°F20.1°C 50% 7.1 mph N11.4 kmh N 11.0 mph17.7 kmh 30.00 in1015.9 mb 0.00 in0.0 mm 0.00 in/hr0.0 mm/hr 0.00 in0.0 mm
05:30 PM 89.5°F31.9°C 68.4°F20.2°C 50% 8.7 mph NNW14.0 kmh NNW 11.0 mph17.7 kmh 30.01 in1016.3 mb 0.00 in0.0 mm 0.00 in/hr0.0 mm/hr 0.00 in0.0 mm
05:20 PM 90.0°F32.2°C 68.3°F20.2°C 49% 7.0 mph N11.3 kmh N 11.0 mph17.7 kmh 30.01 in1016.3 mb 0.00 in0.0 mm 0.00 in/hr0.0 mm/hr 0.00 in0.0 mm
05:10 PM 90.2°F32.3°C 68.5°F20.3°C 49% 7.6 mph NNE12.2 kmh NNE 11.0 mph17.7 kmh 30.02 in1016.6 mb 0.00 in0.0 mm 0.00 in/hr0.0 mm/hr 0.00 in0.0 mm
05:00 PM 90.3°F32.4°C 68.5°F20.3°C 49% 9.4 mph N15.1 kmh N 12.0 mph19.3 kmh 30.01 in1016.3 mb 0.00 in0.0 mm 0.00 in/hr0.0 mm/hr 0.00 in0.0 mm
04:50 PM 90.2°F32.3°C 68.5°F20.3°C 49% 7.3 mph NNW11.7 kmh NNW 8.0 mph12.9 kmh 30.02 in1016.6 mb 0.00 in0.0 mm 0.00 in/hr0.0 mm/hr 0.00 in0.0 mm
04:40 PM 89.6°F32.0°C 68.5°F20.3°C 50% 8.4 mph NE13.5 kmh NE 11.0 mph17.7 kmh 30.02 in1016.6 mb 0.00 in0.0 mm 0.00 in/hr0.0 mm/hr 0.00 in0.0 mm
04:30 PM 88.7°F31.5°C 67.6°F19.8°C 50% 7.4 mph N11.9 kmh N 12.0 mph19.3 kmh 30.02 in1016.6 mb 0.00 in0.0 mm 0.00 in/hr0.0 mm/hr 0.00 in0.0 mm
04:20 PM 88.6°F31.4°C 65.7°F18.7°C 47% 7.1 mph NNE11.4 kmh NNE 11.0 mph17.7 kmh 30.03 in1016.9 mb 0.00 in0.0 mm 0.00 in/hr0.0 mm/hr 0.00 in0.0 mm
04:10 PM 89.5°F31.9°C 63.4°F17.4°C 42% 8.1 mph NNW13.0 kmh NNW 11.0 mph17.7 kmh 30.03 in1016.9 mb 0.00 in0.0 mm 0.00 in/hr0.0 mm/hr 0.00 in0.0 mm
04:00 PM 91.0°F32.8°C 62.6°F17.0°C 39% 9.5 mph NNW15.3 kmh NNW 16.0 mph25.7 kmh 30.03 in1016.9 mb 0.00 in0.0 mm 0.00 in/hr0.0 mm/hr 0.00 in0.0 mm
03:50 PM 91.9°F33.3°C 66.2°F19.0°C 43% 13.4 mph N21.6 kmh N 17.0 mph27.4 kmh 30.04 in1017.3 mb 0.00 in0.0 mm 0.00 in/hr0.0 mm/hr 0.00 in0.0 mm
03:40 PM 91.6°F33.1°C 66.6°F19.2°C 44% 10.5 mph N16.9 kmh N 18.0 mph29.0 kmh 30.04 in1017.3 mb 0.00 in0.0 mm 0.00 in/hr0.0 mm/hr 0.00 in0.0 mm
03:30 PM 91.0°F32.8°C 67.3°F19.6°C 46% 12.7 mph N20.4 kmh N 17.0 mph27.4 kmh 30.04 in1017.3 mb 0.00 in0.0 mm 0.00 in/hr0.0 mm/hr 0.00 in0.0 mm
03:20 PM 90.1°F32.3°C 71.2°F21.8°C 54% 12.0 mph NW19.3 kmh NW 24.0 mph38.6 kmh 30.04 in1017.3 mb 0.00 in0.0 mm 0.00 in/hr0.0 mm/hr 0.00 in0.0 mm
03:10 PM 90.0°F32.2°C 68.3°F20.2°C 49% 11.8 mph N19.0 kmh N 13.0 mph20.9 kmh 30.04 in1017.3 mb 0.00 in0.0 mm 0.00 in/hr0.0 mm/hr 0.00 in0.0 mm
03:00 PM 90.4°F32.4°C 68.6°F20.3°C 49% 9.6 mph NNE15.4 kmh NNE 15.0 mph24.1 kmh 30.05 in1017.6 mb 0.00 in0.0 mm 0.00 in/hr0.0 mm/hr 0.00 in0.0 mm
02:50 PM 90.6°F32.6°C 69.4°F20.8°C 50% 10.4 mph N16.7 kmh N 15.0 mph24.1 kmh 30.05 in1017.6 mb 0.00 in0.0 mm 0.00 in/hr0.0 mm/hr 0.00 in0.0 mm
02:40 PM 90.8°F32.7°C 68.4°F20.2°C 48% 7.2 mph NNE11.6 kmh NNE 10.0 mph16.1 kmh 30.04 in1017.3 mb 0.00 in0.0 mm 0.00 in/hr0.0 mm/hr 0.00 in0.0 mm
02:30 PM 90.8°F32.7°C 70.2°F21.2°C 51% 5.1 mph NNW8.2 kmh NNW 10.0 mph16.1 kmh 30.04 in1017.3 mb 0.00 in0.0 mm 0.00 in/hr0.0 mm/hr 0.00 in0.0 mm
02:20 PM 90.7°F32.6°C 69.5°F20.8°C 50% 8.3 mph NNW13.4 kmh NNW 11.0 mph17.7 kmh 30.05 in1017.6 mb 0.00 in0.0 mm 0.00 in/hr0.0 mm/hr 0.00 in0.0 mm
02:10 PM 91.5°F33.1°C 70.8°F21.6°C 51% 7.8 mph NNW12.6 kmh NNW 13.0 mph20.9 kmh 30.05 in1017.6 mb 0.00 in0.0 mm 0.00 in/hr0.0 mm/hr 0.00 in0.0 mm
02:00 PM 92.2°F33.4°C 70.9°F21.6°C 50% 5.1 mph NE8.2 kmh NE 8.0 mph12.9 kmh 30.05 in1017.6 mb 0.00 in0.0 mm 0.00 in/hr0.0 mm/hr 0.00 in0.0 mm
01:50 PM 92.6°F33.7°C 71.8°F22.1°C 51% 10.3 mph NE16.6 kmh NE 16.0 mph25.7 kmh 30.05 in1017.6 mb 0.00 in0.0 mm 0.00 in/hr0.0 mm/hr 0.00 in0.0 mm
01:40 PM 92.4°F33.6°C 72.2°F22.3°C 52% 7.6 mph NNE12.2 kmh NNE 10.0 mph16.1 kmh 30.05 in1017.6 mb 0.00 in0.0 mm 0.00 in/hr0.0 mm/hr 0.00 in0.0 mm
01:30 PM 92.3°F33.5°C 72.7°F22.6°C 53% 5.0 mph NE8.0 kmh NE 9.0 mph14.5 kmh 30.05 in1017.6 mb 0.00 in0.0 mm 0.00 in/hr0.0 mm/hr 0.00 in0.0 mm
01:20 PM 92.8°F33.8°C 72.6°F22.6°C 52% 7.1 mph NE11.4 kmh NE 8.0 mph12.9 kmh 30.05 in1017.6 mb 0.00 in0.0 mm 0.00 in/hr0.0 mm/hr 0.00 in0.0 mm
01:10 PM 93.0°F33.9°C 73.9°F23.3°C 54% 8.8 mph N14.2 kmh N 13.0 mph20.9 kmh 30.05 in1017.6 mb 0.00 in0.0 mm 0.00 in/hr0.0 mm/hr 0.00 in0.0 mm
01:00 PM 92.3°F33.5°C 74.3°F23.5°C 56% 6.6 mph NE10.6 kmh NE 8.0 mph12.9 kmh 30.05 in1017.6 mb 0.00 in0.0 mm 0.00 in/hr0.0 mm/hr 0.00 in0.0 mm
12:50 PM 91.8°F33.2°C 73.9°F23.3°C 56% 5.3 mph N8.5 kmh N 8.0 mph12.9 kmh 30.05 in1017.6 mb 0.00 in0.0 mm 0.00 in/hr0.0 mm/hr 0.00 in0.0 mm
12:40 PM 91.0°F32.8°C 73.6°F23.1°C 57% 5.9 mph NE9.5 kmh NE 8.0 mph12.9 kmh 30.05 in1017.6 mb 0.00 in0.0 mm 0.00 in/hr0.0 mm/hr 0.00 in0.0 mm
12:30 PM 90.5°F32.5°C 73.7°F23.2°C 58% 9.0 mph NNE14.5 kmh NNE 12.0 mph19.3 kmh 30.05 in1017.6 mb 0.00 in0.0 mm 0.00 in/hr0.0 mm/hr 0.00 in0.0 mm
12:20 PM 89.0°F31.7°C 73.3°F22.9°C 60% 6.9 mph NNE11.1 kmh NNE 10.0 mph16.1 kmh 30.06 in1017.9 mb 0.00 in0.0 mm 0.00 in/hr0.0 mm/hr 0.00 in0.0 mm
12:10 PM 87.8°F31.0°C 72.6°F22.6°C 61% 2.2 mph NNE3.5 kmh NNE 5.0 mph8.0 kmh 30.06 in1017.9 mb 0.00 in0.0 mm 0.00 in/hr0.0 mm/hr 0.00 in0.0 mm
12:00 PM 87.2°F30.7°C 72.1°F22.3°C 61% 2.8 mph NE4.5 kmh NE 8.0 mph12.9 kmh 30.06 in1017.9 mb 0.00 in0.0 mm 0.00 in/hr0.0 mm/hr 0.00 in0.0 mm
11:50 AM 86.9°F30.5°C 70.8°F21.6°C 59% 1.8 mph NE2.9 kmh NE 5.0 mph8.0 kmh 30.06 in1017.9 mb 0.00 in0.0 mm 0.00 in/hr0.0 mm/hr 0.00 in0.0 mm
11:40 AM 86.7°F30.4°C 70.7°F21.5°C 59% 5.9 mph NE9.5 kmh NE 9.0 mph14.5 kmh 30.06 in1017.9 mb 0.00 in0.0 mm 0.00 in/hr0.0 mm/hr 0.00 in0.0 mm
11:30 AM 86.7°F30.4°C 70.7°F21.5°C 59% 3.7 mph NE6.0 kmh NE 7.0 mph11.3 kmh 30.06 in1017.9 mb 0.00 in0.0 mm 0.00 in/hr0.0 mm/hr 0.00 in0.0 mm
11:20 AM 86.9°F30.5°C 70.8°F21.6°C 59% 5.1 mph NE8.2 kmh NE 12.0 mph19.3 kmh 30.06 in1017.9 mb 0.00 in0.0 mm 0.00 in/hr0.0 mm/hr 0.00 in0.0 mm
11:10 AM 86.9°F30.5°C 71.3°F21.8°C 60% 4.3 mph NE6.9 kmh NE 12.0 mph19.3 kmh 30.06 in1017.9 mb 0.00 in0.0 mm 0.00 in/hr0.0 mm/hr 0.00 in0.0 mm
11:00 AM 86.8°F30.4°C 71.2°F21.8°C 60% 3.7 mph NE6.0 kmh NE 7.0 mph11.3 kmh 30.06 in1017.9 mb 0.00 in0.0 mm 0.00 in/hr0.0 mm/hr 0.00 in0.0 mm
10:50 AM 86.7°F30.4°C 70.7°F21.5°C 59% 3.3 mph NNE5.3 kmh NNE 9.0 mph14.5 kmh 30.06 in1017.9 mb 0.00 in0.0 mm 0.00 in/hr0.0 mm/hr 0.00 in0.0 mm
10:40 AM 87.0°F30.6°C 70.9°F21.6°C 59% 2.1 mph NE3.4 kmh NE 8.0 mph12.9 kmh 30.06 in1017.9 mb 0.00 in0.0 mm 0.00 in/hr0.0 mm/hr 0.00 in0.0 mm
10:30 AM 87.1°F30.6°C 71.5°F21.9°C 60% 4.1 mph NE6.6 kmh NE 8.0 mph12.9 kmh 30.06 in1017.9 mb 0.00 in0.0 mm 0.00 in/hr0.0 mm/hr 0.00 in0.0 mm
10:20 AM 86.9°F30.5°C 71.3°F21.8°C 60% 6.8 mph N10.9 kmh N 8.0 mph12.9 kmh 30.06 in1017.9 mb 0.00 in0.0 mm 0.00 in/hr0.0 mm/hr 0.00 in0.0 mm
10:10 AM 86.4°F30.2°C 71.4°F21.9°C 61% 5.7 mph NNE9.2 kmh NNE 8.0 mph12.9 kmh 30.06 in1017.9 mb 0.00 in0.0 mm 0.00 in/hr0.0 mm/hr 0.00 in0.0 mm
10:00 AM 85.8°F29.9°C 71.7°F22.1°C 63% 7.4 mph NNE11.9 kmh NNE 11.0 mph17.7 kmh 30.05 in1017.6 mb 0.00 in0.0 mm 0.00 in/hr0.0 mm/hr 0.00 in0.0 mm
09:50 AM 85.1°F29.5°C 71.6°F22.0°C 64% 4.2 mph NNE6.8 kmh NNE 7.0 mph11.3 kmh 30.05 in1017.6 mb 0.00 in0.0 mm 0.00 in/hr0.0 mm/hr 0.00 in0.0 mm
09:40 AM 84.9°F29.4°C 71.8°F22.1°C 65% 3.0 mph NNE4.8 kmh NNE 10.0 mph16.1 kmh 30.05 in1017.6 mb 0.00 in0.0 mm 0.00 in/hr0.0 mm/hr 0.00 in0.0 mm
09:30 AM 84.3°F29.1°C 72.2°F22.3°C 67% 6.7 mph NNE10.8 kmh NNE 11.0 mph17.7 kmh 30.05 in1017.6 mb 0.00 in0.0 mm 0.00 in/hr0.0 mm/hr 0.00 in0.0 mm
09:20 AM 83.8°F28.8°C 72.1°F22.3°C 68% 8.0 mph NE12.9 kmh NE 13.0 mph20.9 kmh 30.04 in1017.3 mb 0.00 in0.0 mm 0.00 in/hr0.0 mm/hr 0.00 in0.0 mm
09:10 AM 83.5°F28.6°C 72.3°F22.4°C 69% 2.6 mph NNE4.2 kmh NNE 12.0 mph19.3 kmh 30.04 in1017.3 mb 0.00 in0.0 mm 0.00 in/hr0.0 mm/hr 0.00 in0.0 mm
09:00 AM 83.7°F28.7°C 72.8°F22.7°C 70% 5.5 mph N8.9 kmh N 9.0 mph14.5 kmh 30.03 in1016.9 mb 0.00 in0.0 mm 0.00 in/hr0.0 mm/hr 0.00 in0.0 mm
08:50 AM 83.7°F28.7°C 73.3°F22.9°C 71% 4.9 mph N7.9 kmh N 9.0 mph14.5 kmh 30.03 in1016.9 mb 0.00 in0.0 mm 0.00 in/hr0.0 mm/hr 0.00 in0.0 mm
08:40 AM 83.2°F28.4°C 73.6°F23.1°C 73% 0.3 mph N0.5 kmh N -- 30.02 in1016.6 mb 0.00 in0.0 mm 0.00 in/hr0.0 mm/hr 0.00 in0.0 mm
08:30 AM 82.8°F28.2°C 74.1°F23.4°C 75% Calm Calm -- 30.02 in1016.6 mb 0.00 in0.0 mm 0.00 in/hr0.0 mm/hr 0.00 in0.0 mm
08:20 AM 82.3°F27.9°C 74.3°F23.5°C 77% 0.5 mph N0.8 kmh N -- 30.02 in1016.6 mb 0.00 in0.0 mm 0.00 in/hr0.0 mm/hr 0.00 in0.0 mm
08:10 AM 81.7°F27.6°C 74.2°F23.4°C 78% 2.3 mph N3.7 kmh N 5.0 mph8.0 kmh 30.02 in1016.6 mb 0.00 in0.0 mm 0.00 in/hr0.0 mm/hr 0.00 in0.0 mm
08:00 AM 81.2°F27.3°C 74.8°F23.8°C 81% 4.5 mph N7.2 kmh N 8.0 mph12.9 kmh 30.02 in1016.6 mb 0.00 in0.0 mm 0.00 in/hr0.0 mm/hr 0.00 in0.0 mm
07:50 AM 80.7°F27.1°C 74.7°F23.7°C 82% Calm Calm -- 30.01 in1016.3 mb 0.00 in0.0 mm 0.00 in/hr0.0 mm/hr 0.00 in0.0 mm
07:40 AM 80.1°F26.7°C 74.9°F23.8°C 84% 0.4 mph N0.6 kmh N -- 30.00 in1015.9 mb 0.00 in0.0 mm 0.00 in/hr0.0 mm/hr 0.00 in0.0 mm
07:30 AM 79.7°F26.5°C 74.8°F23.8°C 85% Calm Calm -- 30.00 in1015.9 mb 0.00 in0.0 mm 0.00 in/hr0.0 mm/hr 0.00 in0.0 mm
07:20 AM 79.6°F26.4°C 74.7°F23.7°C 85% Calm Calm -- 30.00 in1015.9 mb 0.00 in0.0 mm 0.00 in/hr0.0 mm/hr 0.00 in0.0 mm
07:10 AM 79.6°F26.4°C 74.3°F23.5°C 84% 1.7 mph N2.7 kmh N 5.0 mph8.0 kmh 29.99 in1015.6 mb 0.00 in0.0 mm 0.00 in/hr0.0 mm/hr 0.00 in0.0 mm
07:00 AM 79.7°F26.5°C 74.4°F23.6°C 84% 0.5 mph N0.8 kmh N 4.0 mph6.4 kmh 29.99 in1015.6 mb 0.00 in0.0 mm 0.00 in/hr0.0 mm/hr 0.00 in0.0 mm
06:50 AM 79.8°F26.6°C 74.2°F23.4°C 83% Calm Calm -- 29.99 in1015.6 mb 0.00 in0.0 mm 0.00 in/hr0.0 mm/hr 0.00 in0.0 mm
06:40 AM 80.0°F26.7°C 74.0°F23.3°C 82% 0.1 mph N0.2 kmh N -- 29.99 in1015.6 mb 0.00 in0.0 mm 0.00 in/hr0.0 mm/hr 0.00 in0.0 mm
06:30 AM 80.3°F26.8°C 73.9°F23.3°C 81% 3.3 mph N5.3 kmh N 6.0 mph9.7 kmh 30.00 in1015.9 mb 0.00 in0.0 mm 0.00 in/hr0.0 mm/hr 0.00 in0.0 mm
06:20 AM 80.5°F26.9°C 73.4°F23.0°C 79% 6.1 mph NW9.8 kmh NW 10.0 mph16.1 kmh 29.99 in1015.6 mb 0.00 in0.0 mm 0.00 in/hr0.0 mm/hr 0.00 in0.0 mm
06:10 AM 80.5°F26.9°C 71.8°F22.1°C 75% 1.8 mph WSW2.9 kmh WSW 6.0 mph9.7 kmh 29.99 in1015.6 mb 0.00 in0.0 mm 0.00 in/hr0.0 mm/hr 0.00 in0.0 mm
06:00 AM 80.6°F27.0°C 71.5°F21.9°C 74% Calm Calm -- 29.98 in1015.2 mb 0.00 in0.0 mm 0.00 in/hr0.0 mm/hr 0.00 in0.0 mm
05:50 AM 80.5°F26.9°C 71.0°F21.7°C 73% Calm Calm -- 29.98 in1015.2 mb 0.00 in0.0 mm 0.00 in/hr0.0 mm/hr 0.00 in0.0 mm
05:40 AM 80.3°F26.8°C 71.3°F21.8°C 74% Calm Calm -- 29.98 in1015.2 mb 0.00 in0.0 mm 0.00 in/hr0.0 mm/hr 0.00 in0.0 mm
05:30 AM 80.2°F26.8°C 71.2°F21.8°C 74% Calm Calm -- 29.98 in1015.2 mb 0.00 in0.0 mm 0.00 in/hr0.0 mm/hr 0.00 in0.0 mm
05:20 AM 80.4°F26.9°C 70.9°F21.6°C 73% Calm Calm -- 29.97 in1014.9 mb 0.00 in0.0 mm 0.00 in/hr0.0 mm/hr 0.00 in0.0 mm
05:10 AM 80.9°F27.2°C 71.0°F21.7°C 72% Calm Calm -- 29.96 in1014.6 mb 0.00 in0.0 mm 0.00 in/hr0.0 mm/hr 0.00 in0.0 mm
05:00 AM 81.3°F27.4°C 71.0°F21.7°C 71% Calm Calm -- 29.96 in1014.6 mb 0.00 in0.0 mm 0.00 in/hr0.0 mm/hr 0.00 in0.0 mm
04:50 AM 81.8°F27.7°C 71.0°F21.7°C 70% Calm Calm -- 29.96 in1014.6 mb 0.00 in0.0 mm 0.00 in/hr0.0 mm/hr 0.00 in0.0 mm
04:40 AM 82.3°F27.9°C 70.7°F21.5°C 68% Calm Calm -- 29.96 in1014.6 mb 0.00 in0.0 mm 0.00 in/hr0.0 mm/hr 0.00 in0.0 mm
04:30 AM 82.9°F28.3°C 70.8°F21.6°C 67% Calm Calm -- 29.96 in1014.6 mb 0.00 in0.0 mm 0.00 in/hr0.0 mm/hr 0.00 in0.0 mm
04:20 AM 83.4°F28.6°C 70.9°F21.6°C 66% Calm Calm -- 29.96 in1014.6 mb 0.00 in0.0 mm 0.00 in/hr0.0 mm/hr 0.00 in0.0 mm
04:10 AM 83.8°F28.8°C 70.8°F21.6°C 65% Calm Calm -- 29.95 in1014.2 mb 0.00 in0.0 mm 0.00 in/hr0.0 mm/hr 0.00 in0.0 mm
04:00 AM 84.3°F29.1°C 70.8°F21.6°C 64% Calm Calm -- 29.95 in1014.2 mb 0.00 in0.0 mm 0.00 in/hr0.0 mm/hr 0.00 in0.0 mm
03:50 AM 84.7°F29.3°C 70.7°F21.5°C 63% Calm Calm -- 29.95 in1014.2 mb 0.00 in0.0 mm 0.00 in/hr0.0 mm/hr 0.00 in0.0 mm
03:40 AM 84.9°F29.4°C 70.9°F21.6°C 63% Calm Calm -- 29.95 in1014.2 mb 0.00 in0.0 mm 0.00 in/hr0.0 mm/hr 0.00 in0.0 mm
03:30 AM 85.0°F29.4°C 71.0°F21.7°C 63% 0.3 mph S0.5 kmh S 5.0 mph8.0 kmh 29.94 in1013.9 mb 0.00 in0.0 mm 0.00 in/hr0.0 mm/hr 0.00 in0.0 mm
03:20 AM 84.9°F29.4°C 70.9°F21.6°C 63% Calm Calm -- 29.94 in1013.9 mb 0.00 in0.0 mm 0.00 in/hr0.0 mm/hr 0.00 in0.0 mm
03:10 AM 84.8°F29.3°C 70.8°F21.6°C 63% 1.4 mph S2.3 kmh S -- 29.94 in1013.9 mb 0.00 in0.0 mm 0.00 in/hr0.0 mm/hr 0.00 in0.0 mm
03:00 AM 84.8°F29.3°C 70.8°F21.6°C 63% Calm Calm -- 29.94 in1013.9 mb 0.00 in0.0 mm 0.00 in/hr0.0 mm/hr 0.00 in0.0 mm
02:50 AM 84.7°F29.3°C 70.7°F21.5°C 63% Calm Calm -- 29.93 in1013.5 mb 0.00 in0.0 mm 0.00 in/hr0.0 mm/hr 0.00 in0.0 mm
02:40 AM 84.7°F29.3°C 70.7°F21.5°C 63% 1.1 mph S1.8 kmh S 4.0 mph6.4 kmh 29.93 in1013.5 mb 0.00 in0.0 mm 0.00 in/hr0.0 mm/hr 0.00 in0.0 mm
02:30 AM 84.7°F29.3°C 70.7°F21.5°C 63% 2.0 mph S3.2 kmh S 6.0 mph9.7 kmh 29.93 in1013.5 mb 0.00 in0.0 mm 0.00 in/hr0.0 mm/hr 0.00 in0.0 mm
02:20 AM 84.6°F29.2°C 70.6°F21.4°C 63% 1.0 mph S1.6 kmh S 7.0 mph11.3 kmh 29.93 in1013.5 mb 0.00 in0.0 mm 0.00 in/hr0.0 mm/hr 0.00 in0.0 mm
02:10 AM 84.7°F29.3°C 71.1°F21.7°C 64% 0.7 mph S1.1 kmh S 6.0 mph9.7 kmh 29.93 in1013.5 mb 0.00 in0.0 mm 0.00 in/hr0.0 mm/hr 0.00 in0.0 mm
02:00 AM 84.8°F29.3°C 70.8°F21.6°C 63% Calm Calm -- 29.93 in1013.5 mb 0.00 in0.0 mm 0.00 in/hr0.0 mm/hr 0.00 in0.0 mm
01:50 AM 85.1°F29.5°C 71.1°F21.7°C 63% Calm Calm -- 29.93 in1013.5 mb 0.00 in0.0 mm 0.00 in/hr0.0 mm/hr 0.00 in0.0 mm
01:40 AM 85.3°F29.6°C 70.8°F21.6°C 62% Calm Calm -- 29.93 in1013.5 mb 0.00 in0.0 mm 0.00 in/hr0.0 mm/hr 0.00 in0.0 mm
01:30 AM 85.7°F29.8°C 71.2°F21.8°C 62% 0.7 mph S1.1 kmh S 2.0 mph3.2 kmh 29.93 in1013.5 mb 0.00 in0.0 mm 0.00 in/hr0.0 mm/hr 0.00 in0.0 mm
01:20 AM 86.0°F30.0°C 70.9°F21.6°C 61% 2.6 mph S4.2 kmh S 5.0 mph8.0 kmh 29.93 in1013.5 mb 0.00 in0.0 mm 0.00 in/hr0.0 mm/hr 0.00 in0.0 mm
01:10 AM 86.2°F30.1°C 71.2°F21.8°C 61% 1.3 mph S2.1 kmh S 7.0 mph11.3 kmh 29.93 in1013.5 mb 0.00 in0.0 mm 0.00 in/hr0.0 mm/hr 0.00 in0.0 mm
01:00 AM 86.5°F30.3°C 70.9°F21.6°C 60% 1.5 mph S2.4 kmh S 5.0 mph8.0 kmh 29.93 in1013.5 mb 0.00 in0.0 mm 0.00 in/hr0.0 mm/hr 0.00 in0.0 mm
12:50 AM 86.7°F30.4°C 71.2°F21.8°C 60% 3.2 mph S5.1 kmh S 8.0 mph12.9 kmh 29.93 in1013.5 mb 0.00 in0.0 mm 0.00 in/hr0.0 mm/hr 0.00 in0.0 mm
12:40 AM 86.9°F30.5°C 70.9°F21.6°C 59% 3.8 mph S6.1 kmh S 8.0 mph12.9 kmh 29.93 in1013.5 mb 0.00 in0.0 mm 0.00 in/hr0.0 mm/hr 0.00 in0.0 mm
12:30 AM 87.2°F30.7°C 71.1°F21.7°C 59% 5.1 mph S8.2 kmh S 7.0 mph11.3 kmh 29.93 in1013.5 mb 0.00 in0.0 mm 0.00 in/hr0.0 mm/hr 0.00 in0.0 mm
12:20 AM 87.5°F30.8°C 71.4°F21.9°C 59% 3.2 mph S5.1 kmh S 7.0 mph11.3 kmh 29.93 in1013.5 mb 0.00 in0.0 mm 0.00 in/hr0.0 mm/hr 0.00 in0.0 mm
12:10 AM 87.9°F31.1°C 71.8°F22.1°C 59% 0.7 mph S1.1 kmh S 2.0 mph3.2 kmh 29.93 in1013.5 mb 0.00 in0.0 mm 0.00 in/hr0.0 mm/hr 0.00 in0.0 mm
12:00 AM 88.3°F31.3°C 71.6°F22.0°C 58% 5.7 mph S9.2 kmh S 10.0 mph16.1 kmh 29.93 in1013.5 mb 0.00 in0.0 mm 0.00 in/hr0.0 mm/hr 0.00 in0.0 mm